createdAt,value
2022-12-04T00:04:45.712Z,69.02
2022-12-04T00:09:47.069Z,68.89
2022-12-04T00:15:23.432Z,68.80
2022-12-04T00:20:10.010Z,69.22
2022-12-04T00:25:11.380Z,69.32
2022-12-04T00:30:13.149Z,69.25
2022-12-04T00:35:14.653Z,69.37
2022-12-04T00:40:16.139Z,69.76
2022-12-04T00:45:17.497Z,69.85
2022-12-04T00:50:18.884Z,70.06
2022-12-04T00:55:22.338Z,70.09
2022-12-04T01:00:24.074Z,69.74
2022-12-04T01:05:25.494Z,69.79
2022-12-04T01:10:26.877Z,69.24
2022-12-04T01:15:28.170Z,69.61
2022-12-04T01:20:29.545Z,69.46
2022-12-04T01:25:31.007Z,69.17
2022-12-04T01:30:32.359Z,68.75
2022-12-04T01:35:33.806Z,69.26
2022-12-04T01:40:35.126Z,69.55
2022-12-04T01:45:47.749Z,69.12
2022-12-04T01:50:51.924Z,69.05
2022-12-04T01:55:53.874Z,69.39
2022-12-04T02:01:03.752Z,69.46
2022-12-04T02:06:07.971Z,69.53
2022-12-04T02:11:37.905Z,69.28
2022-12-04T02:16:48.385Z,69.12
2022-12-04T02:21:55.333Z,69.34
2022-12-04T02:27:09.715Z,69.45
2022-12-04T02:32:20.266Z,69.66
2022-12-04T02:37:34.227Z,69.61
2022-12-04T02:42:43.690Z,69.65
2022-12-04T02:47:46.403Z,69.34
2022-12-04T02:52:57.326Z,69.61
2022-12-04T02:58:04.549Z,69.29
2022-12-04T03:03:11.139Z,69.40
2022-12-04T03:08:19.615Z,69.64
2022-12-04T03:13:30.787Z,69.30
2022-12-04T03:18:37.639Z,69.66
2022-12-04T03:23:54.934Z,69.49
2022-12-04T03:29:18.163Z,69.32
2022-12-04T03:34:32.595Z,69.67
2022-12-04T03:39:43.888Z,70.10
2022-12-04T03:45:02.016Z,69.93
2022-12-04T03:50:13.921Z,69.63
2022-12-04T03:55:23.672Z,69.06
2022-12-04T04:00:25.291Z,69.49
2022-12-04T04:05:29.885Z,70.04
2022-12-04T04:10:31.264Z,69.22
2022-12-04T04:15:51.736Z,69.62
2022-12-04T04:21:17.970Z,69.78
2022-12-04T04:26:19.609Z,69.66
2022-12-04T04:31:45.216Z,70.02
2022-12-04T04:37:11.306Z,70.00
2022-12-04T04:42:30.168Z,69.66
2022-12-04T04:47:38.284Z,69.82
2022-12-04T04:52:44.164Z,69.79
2022-12-04T04:57:45.594Z,69.59
2022-12-04T05:02:48.558Z,69.52
2022-12-04T05:07:50.123Z,69.40
2022-12-04T05:12:51.507Z,69.53
2022-12-04T05:17:52.819Z,69.08
2022-12-04T05:22:54.102Z,69.18
2022-12-04T05:27:55.396Z,69.15
2022-12-04T05:32:57.056Z,69.32
2022-12-04T05:37:58.450Z,68.80
2022-12-04T05:42:59.805Z,69.04
2022-12-04T05:48:01.193Z,68.74
2022-12-04T05:53:02.648Z,69.17
2022-12-04T05:58:04.510Z,68.79
2022-12-04T06:03:05.931Z,68.53
2022-12-04T06:08:07.426Z,69.56
2022-12-04T06:13:08.856Z,69.58
2022-12-04T06:18:10.151Z,68.57
2022-12-04T06:23:11.487Z,68.63
2022-12-04T06:28:12.770Z,68.55
2022-12-04T06:33:14.106Z,68.56
2022-12-04T06:38:15.395Z,68.69
2022-12-04T06:43:16.680Z,68.80
2022-12-04T06:48:18.011Z,68.46
2022-12-04T06:53:20.397Z,68.63
2022-12-04T06:58:21.703Z,68.67
2022-12-04T07:03:24.763Z,68.50
2022-12-04T07:08:26.039Z,68.47
2022-12-04T07:13:27.352Z,68.47
2022-12-04T07:18:30.187Z,69.53
2022-12-04T07:23:31.477Z,69.08
2022-12-04T07:28:33.427Z,69.03
2022-12-04T07:33:35.749Z,69.40
2022-12-04T07:38:37.120Z,69.35
2022-12-04T07:43:39.076Z,69.36
2022-12-04T07:48:40.962Z,69.17
2022-12-04T07:53:42.534Z,69.02
2022-12-04T07:58:44.126Z,69.12
2022-12-04T08:03:48.534Z,69.40
2022-12-04T08:08:50.558Z,69.45
2022-12-04T08:13:57.176Z,69.07
2022-12-04T08:18:59.603Z,69.41
2022-12-04T08:24:01.738Z,69.80
2022-12-04T08:29:04.464Z,69.82
2022-12-04T08:34:07.625Z,70.46
2022-12-04T08:39:11.236Z,70.59
2022-12-04T08:44:12.616Z,70.78
2022-12-04T08:49:14.165Z,70.90
2022-12-04T08:54:15.481Z,70.82
2022-12-04T08:59:16.842Z,71.25
2022-12-04T09:04:19.013Z,71.50
2022-12-04T09:09:20.319Z,71.49
2022-12-04T09:14:25.669Z,71.48
2022-12-04T09:19:26.993Z,72.16
2022-12-04T09:24:30.336Z,72.04
2022-12-04T09:29:32.456Z,72.28
2022-12-04T09:34:33.796Z,72.19
2022-12-04T09:39:35.233Z,71.96
2022-12-04T09:44:44.082Z,71.70
2022-12-04T09:50:10.167Z,71.68
2022-12-04T09:55:17.896Z,72.12
2022-12-04T10:00:20.282Z,71.68
2022-12-04T10:05:31.963Z,71.58
2022-12-04T10:10:33.284Z,71.86
2022-12-04T10:15:46.911Z,72.14
2022-12-04T10:21:23.602Z,72.32
2022-12-04T10:26:33.098Z,72.10
2022-12-04T10:31:37.745Z,72.21
2022-12-04T10:36:40.072Z,71.46
2022-12-04T10:41:51.957Z,71.58
2022-12-04T10:47:01.941Z,71.96
2022-12-04T10:52:04.703Z,71.42
2022-12-04T10:57:08.841Z,71.56
2022-12-04T11:02:32.637Z,71.56
2022-12-04T11:07:37.083Z,71.44
2022-12-04T11:12:38.540Z,71.13
2022-12-04T11:17:40.033Z,71.11
2022-12-04T11:22:50.872Z,70.82
2022-12-04T11:27:55.675Z,70.32
2022-12-04T11:32:57.911Z,71.28
2022-12-04T11:38:09.756Z,71.18
2022-12-04T11:43:15.458Z,71.05
2022-12-04T11:48:18.381Z,70.85
2022-12-04T11:53:28.815Z,69.99
2022-12-04T11:58:44.884Z,69.98
2022-12-04T12:04:14.277Z,70.36
2022-12-04T12:09:35.729Z,70.41
2022-12-04T12:14:54.193Z,70.43
2022-12-04T12:20:13.063Z,71.18
2022-12-04T12:25:50.381Z,71.14
2022-12-04T12:31:22.297Z,71.67
2022-12-04T12:36:27.039Z,71.22
2022-12-04T12:41:41.536Z,71.14
2022-12-04T12:46:51.482Z,70.77
2022-12-04T12:52:01.470Z,70.73
2022-12-04T12:57:10.254Z,71.37
2022-12-04T13:02:28.367Z,70.51
2022-12-04T13:07:47.651Z,70.76
2022-12-04T13:12:57.969Z,70.81
2022-12-04T13:18:00.252Z,71.14
2022-12-04T13:23:36.822Z,70.61
2022-12-04T13:29:01.490Z,71.30
2022-12-04T13:34:18.164Z,71.55
2022-12-04T13:39:48.644Z,71.30
2022-12-04T13:44:56.169Z,71.64
2022-12-04T13:50:31.648Z,71.40
2022-12-04T13:55:35.498Z,71.84
2022-12-04T14:00:42.230Z,71.59
2022-12-04T14:05:47.457Z,71.70
2022-12-04T14:11:04.381Z,71.95
2022-12-04T14:16:42.100Z,71.73
2022-12-04T14:21:46.099Z,71.86
2022-12-04T14:32:23.387Z,71.49
2022-12-04T14:37:40.243Z,71.63
2022-12-04T14:42:41.684Z,71.63
2022-12-04T14:48:10.571Z,71.96
2022-12-04T14:53:35.194Z,71.94
2022-12-04T14:58:38.887Z,74.26
2022-12-04T15:03:44.717Z,70.86
2022-12-04T15:08:51.139Z,70.77
2022-12-04T15:13:52.499Z,70.83
2022-12-04T15:18:58.416Z,71.25
2022-12-04T15:23:59.873Z,71.10
2022-12-04T15:29:04.579Z,71.52
2022-12-04T15:34:13.586Z,71.30
2022-12-04T15:39:22.548Z,71.52
2022-12-04T15:44:28.794Z,71.85
2022-12-04T15:49:32.511Z,71.59
2022-12-04T15:54:36.311Z,71.67
2022-12-04T15:59:37.927Z,72.11
2022-12-04T16:04:44.078Z,71.82
2022-12-04T16:09:52.672Z,71.72
2022-12-04T16:14:55.942Z,71.28
2022-12-04T16:19:58.611Z,71.51
2022-12-04T16:25:00.452Z,72.16
2022-12-04T16:30:01.932Z,72.23
2022-12-04T16:35:03.287Z,72.27
2022-12-04T16:40:06.420Z,72.83
2022-12-04T16:45:22.412Z,72.33
2022-12-04T16:50:24.817Z,72.71
2022-12-04T16:55:35.348Z,72.55
2022-12-04T17:00:36.755Z,72.75
2022-12-04T17:05:38.147Z,73.94
2022-12-04T17:10:39.690Z,73.52
2022-12-04T17:15:40.977Z,74.18
2022-12-04T17:20:43.457Z,74.28
2022-12-04T17:25:44.882Z,74.93
2022-12-04T17:30:46.686Z,75.12
2022-12-04T17:35:48.011Z,75.23
2022-12-04T17:41:01.020Z,75.63
2022-12-04T17:46:09.405Z,75.74
2022-12-04T17:51:22.409Z,75.64
2022-12-04T17:56:24.592Z,76.08
2022-12-04T18:01:28.920Z,77.35
2022-12-04T18:06:36.790Z,76.88
2022-12-04T18:11:42.136Z,77.35
2022-12-04T18:16:52.936Z,77.02
2022-12-04T18:21:55.319Z,77.14
2022-12-04T18:26:56.737Z,77.33
2022-12-04T18:31:58.168Z,76.73
2022-12-04T18:36:59.841Z,76.86
2022-12-04T18:42:01.362Z,77.10
2022-12-04T18:47:02.664Z,77.89
2022-12-04T18:52:04.114Z,77.75
2022-12-04T18:57:05.517Z,77.21
2022-12-04T19:02:07.082Z,77.44
2022-12-04T19:07:08.398Z,77.53
2022-12-04T19:12:09.896Z,77.28
2022-12-04T19:17:11.567Z,77.50
2022-12-04T19:22:13.329Z,77.84
2022-12-04T19:27:15.166Z,76.77
2022-12-04T19:32:16.537Z,76.48
2022-12-04T19:37:18.629Z,76.46
2022-12-04T19:42:20.247Z,76.41
2022-12-04T19:47:21.567Z,76.20
2022-12-04T19:52:23.158Z,76.02
2022-12-04T19:57:24.517Z,75.47
2022-12-04T20:02:26.141Z,75.63
2022-12-04T20:07:27.551Z,76.15
2022-12-04T20:12:29.132Z,76.15
2022-12-04T20:17:31.326Z,75.82
2022-12-04T20:22:34.841Z,76.07
2022-12-04T20:27:36.224Z,75.71
2022-12-04T20:32:37.685Z,75.78
2022-12-04T20:37:39.183Z,75.79
2022-12-04T20:42:40.705Z,75.88
2022-12-04T20:47:42.193Z,75.44
2022-12-04T20:52:43.513Z,74.93
2022-12-04T20:57:45.015Z,75.20
2022-12-04T21:02:47.803Z,75.68
2022-12-04T21:07:50.212Z,75.91
2022-12-04T21:13:10.219Z,75.64
2022-12-04T21:18:11.567Z,75.56
2022-12-04T21:23:12.912Z,75.63
2022-12-04T21:28:14.306Z,75.51
2022-12-04T21:33:16.375Z,75.66
2022-12-04T21:38:17.746Z,75.77
2022-12-04T21:43:19.125Z,76.13
2022-12-04T21:48:20.396Z,76.63
2022-12-04T21:53:22.582Z,77.26
2022-12-04T21:58:26.572Z,76.79
2022-12-04T22:03:28.038Z,77.60
2022-12-04T22:08:29.431Z,77.34
2022-12-04T22:13:30.882Z,77.26
2022-12-04T22:18:33.840Z,77.27
2022-12-04T22:23:35.944Z,77.48
2022-12-04T22:28:37.724Z,78.20
2022-12-04T22:33:39.528Z,78.13
2022-12-04T22:39:06.010Z,77.95
2022-12-04T22:44:02.917Z,77.97
2022-12-04T22:49:04.283Z,78.19
2022-12-04T22:54:07.865Z,78.91
2022-12-04T22:59:09.213Z,78.59
2022-12-04T23:04:10.548Z,78.67
2022-12-04T23:09:14.470Z,78.88
2022-12-04T23:14:15.955Z,78.81
2022-12-04T23:19:18.896Z,79.32
2022-12-04T23:24:20.241Z,79.33
2022-12-04T23:29:52.315Z,79.06
2022-12-04T23:34:42.934Z,79.33
2022-12-04T23:39:44.341Z,79.42
2022-12-04T23:44:45.954Z,79.43
2022-12-04T23:49:47.245Z,80.13
2022-12-04T23:54:48.600Z,80.23
2022-12-04T23:59:51.704Z,79.95
